Main page
METAR-TAF:

METAR-TAF

Airports :

Kulob, Tajikistan

Kulob Airport

latitude: 37-59-18N, longitude: 069-48-18E, elevation: 699 m

Current weather observation

The report was made 10 minutes ago, at 21:30 UTC
Wind 6 kt from the North
Temperature 4°C
Humidity 65%
Pressure 1014 hPa
Visibility 10 km or more

METAR: UTDK 232130Z 01003MPS 9999 NSC 04/M02 Q1014 R01/09//70 RMK QFE703/0938

Time: 02:40 (21:40 UTC)

Forecast

The report was made 40 minutes ago, at 21:00 UTC
Forecast valid from 23 at 22 UTC to 24 at 07 UTC
Wind 10 kt from the North/Northeast
Visibility: 4000 m
Few clouds at a height of 6600 ft
Scattered clouds at a height of 13000 ft
mist
Temporary
from 23 at 22 UTC to 24 at 07 UTC
Wind 4 kt from variable directions
Visibility: 1500 m
mist

TAF: UTDK 232100Z 2322/2407 03005MPS 4000 BR FEW066 SCT130 TEMPO 2322/2407 VRB02MPS 1500 BR

Weather observations and forecasts of more than 4000 airports (METAR and TAF reports).

The available stations are represented by yellow and red dots on the map.

Hover mouse over dot to see the name of the station.

Then click to see weather observations and forecasts.

To change the map : click on the green buttons with a black cross to zoom in, on the green button with a dash to zoom out, or on the green arrows for adjacent maps.


METAR-TAF: